Time;durP1;ratioP1;P1;durP2;ratioP2;P2;SDS_P1;SDS_P2;PMS_P1;PMS_P2;Temp;Humidity;BMP_temperature;BMP_pressure;BME280_temperature;BME280_humidity;BME280_pressure;Samples;Min_cycle;Max_cycle;Signal;HPM_P1;HPM_P2
2022/01/28 00:00:41;;;;;;;20.73;18.42;;;2.20;99.90;;;;;;5019485;28;20049;-74
2022/01/28 00:03:07;;;;;;;23.17;19.65;;;2.10;99.90;;;;;;5023125;28;20041;-74
2022/01/28 00:05:34;;;;;;;21.40;19.08;;;2.20;99.90;;;;;;5020740;28;20072;-73
2022/01/28 00:08:01;;;;;;;21.02;18.15;;;2.40;99.90;;;;;;5020853;28;20057;-72
2022/01/28 00:10:27;;;;;;;20.23;18.00;;;2.30;99.90;;;;;;5025567;28;20072;-74
2022/01/28 00:15:36;;;;;;;19.10;17.15;;;2.50;99.90;;;;;;5023396;28;20459;-73
2022/01/28 00:37:25;;;;;;;17.45;14.90;;;2.40;99.90;;;;;;5022862;28;20079;-74
2022/01/28 00:39:27;;;;;;;15.20;13.68;;;2.40;99.90;;;;;;5026255;28;20076;-74
2022/01/28 00:41:53;;;;;;;13.38;11.98;;;2.50;99.90;;;;;;5025990;28;20052;-74
2022/01/28 00:44:18;;;;;;;13.95;12.02;;;2.50;99.90;;;;;;5033282;28;20476;-74
2022/01/28 00:46:44;;;;;;;12.35;11.05;;;2.50;99.90;;;;;;5032141;28;20021;-74
2022/01/28 00:49:10;;;;;;;11.40;10.25;;;2.60;99.90;;;;;;5027537;28;20542;-74
2022/01/28 00:51:36;;;;;;;10.27;8.77;;;2.70;99.90;;;;;;5025476;28;20021;-74
2022/01/28 00:54:01;;;;;;;10.40;9.38;;;2.70;99.90;;;;;;5018506;28;20076;-74
2022/01/28 00:56:27;;;;;;;9.68;8.50;;;2.70;99.90;;;;;;5019709;28;20535;-74
2022/01/28 00:58:52;;;;;;;8.75;7.95;;;2.70;99.90;;;;;;5026419;28;20782;-74
2022/01/28 01:01:18;;;;;;;8.20;7.22;;;2.90;99.90;;;;;;5024646;28;20026;-74
2022/01/28 01:03:43;;;;;;;8.90;8.00;;;2.90;99.90;;;;;;5032791;28;20040;-72
2022/01/28 01:06:09;;;;;;;8.27;7.15;;;2.90;99.90;;;;;;5031856;28;20041;-73
2022/01/28 01:08:34;;;;;;;9.23;7.38;;;2.90;99.90;;;;;;5013789;28;20057;-73
2022/01/28 01:11:00;;;;;;;10.80;8.55;;;2.90;99.90;;;;;;5012702;28;20053;-73
2022/01/28 01:13:25;;;;;;;9.05;8.10;;;2.80;99.90;;;;;;5032016;28;20087;-72
2022/01/28 01:15:56;;;;;;;9.90;7.75;;;2.80;99.90;;;;;;5020224;28;20025;-72
2022/01/28 01:18:32;;;;;;;9.77;8.20;;;2.80;99.90;;;;;;5024878;28;20022;-73
2022/01/28 01:21:04;;;;;;;12.05;7.53;;;2.80;99.90;;;;;;5024629;28;20033;-73
2022/01/28 01:23:33;;;;;;;10.10;8.25;;;2.70;99.90;;;;;;5019847;28;20033;-72
2022/01/28 01:28:32;;;;;;;8.15;6.63;;;2.70;99.90;;;;;;5021762;28;20100;-74
2022/01/28 01:31:00;;;;;;;7.38;5.05;;;2.90;99.90;;;;;;5030990;28;20045;-73
2022/01/28 01:33:27;;;;;;;5.90;5.07;;;3.00;99.90;;;;;;5031034;28;20391;-73
2022/01/28 01:35:53;;;;;;;7.30;5.40;;;3.00;99.90;;;;;;5028051;28;20476;-73
2022/01/28 01:38:23;;;;;;;5.57;5.00;;;3.00;99.90;;;;;;5021335;28;20038;-73
2022/01/28 01:40:53;;;;;;;6.40;5.05;;;3.00;99.90;;;;;;5028871;28;20036;-74
2022/01/28 01:43:50;;;;;;;7.15;5.50;;;2.90;99.90;;;;;;5020629;28;20066;-73
2022/01/28 01:54:02;;;;;;;8.73;6.63;;;2.80;99.90;;;;;;5025663;28;20044;-74
2022/01/28 01:56:28;;;;;;;9.45;8.02;;;2.70;99.90;;;;;;5024218;28;20383;-73
2022/01/28 01:58:56;;;;;;;10.98;7.80;;;2.80;99.90;;;;;;5025172;28;20462;-74
2022/01/28 02:01:21;;;;;;;10.18;7.45;;;2.70;99.90;;;;;;5024205;28;20076;-73
2022/01/28 02:03:48;;;;;;;8.88;7.97;;;2.70;99.90;;;;;;5026351;28;20061;-73
2022/01/28 02:06:16;;;;;;;8.60;7.70;;;2.60;99.90;;;;;;5024270;28;20022;-73
2022/01/28 02:08:43;;;;;;;9.07;8.05;;;2.60;99.90;;;;;;5012603;28;20129;-72
2022/01/28 02:11:08;;;;;;;8.55;7.07;;;2.50;99.90;;;;;;5024659;28;20025;-73
2022/01/28 02:13:36;;;;;;;9.10;7.70;;;2.50;99.90;;;;;;5029484;28;20116;-72
2022/01/28 02:16:02;;;;;;;9.50;7.78;;;2.50;99.90;;;;;;5018605;28;20036;-72
2022/01/28 02:18:27;;;;;;;11.05;8.57;;;2.50;99.90;;;;;;5018448;28;20033;-71
2022/01/28 02:20:58;;;;;;;10.95;8.68;;;2.50;99.90;;;;;;5018526;28;20029;-72
2022/01/28 02:23:23;;;;;;;10.73;8.63;;;2.50;99.90;;;;;;5010673;28;20029;-72
2022/01/28 02:25:49;;;;;;;10.27;9.13;;;2.40;99.90;;;;;;5025180;28;20017;-72
2022/01/28 02:28:18;;;;;;;10.65;8.68;;;2.40;99.90;;;;;;5017358;28;20116;-72
2022/01/28 02:30:45;;;;;;;10.65;9.02;;;2.40;99.90;;;;;;5030963;28;20075;-73
2022/01/28 02:33:17;;;;;;;11.20;9.18;;;2.40;99.90;;;;;;5019189;28;20100;-73
2022/01/28 02:35:44;;;;;;;10.93;9.85;;;2.40;99.90;;;;;;5018291;28;20115;-73
2022/01/28 02:38:11;;;;;;;13.38;9.63;;;2.40;99.90;;;;;;5023217;28;20100;-73
2022/01/28 02:40:39;;;;;;;10.50;9.40;;;2.40;99.90;;;;;;5024706;28;20045;-74
2022/01/28 02:43:32;;;;;;;13.30;10.27;;;2.40;99.90;;;;;;5020326;28;20026;-75
2022/01/28 02:45:52;;;;;;;14.68;10.80;;;2.40;99.90;;;;;;5018041;28;20061;-74
2022/01/28 02:48:21;;;;;;;14.75;11.13;;;2.40;99.90;;;;;;5018684;28;20081;-75
2022/01/28 02:53:47;;;;;;;12.68;11.02;;;2.50;99.90;;;;;;5013717;28;20084;-73
2022/01/28 02:56:20;;;;;;;14.48;11.27;;;2.60;99.90;;;;;;5021597;28;20522;-73
2022/01/28 02:58:47;;;;;;;14.30;11.35;;;2.50;99.90;;;;;;5029196;28;20029;-73
2022/01/28 03:01:15;;;;;;;13.82;11.30;;;2.50;99.90;;;;;;5031001;28;20037;-72
2022/01/28 03:03:44;;;;;;;14.88;11.95;;;2.40;99.90;;;;;;5017938;28;20021;-74
2022/01/28 03:06:12;;;;;;;14.65;11.10;;;2.50;99.90;;;;;;5031298;28;20036;-73
2022/01/28 03:08:41;;;;;;;17.67;11.02;;;2.60;99.90;;;;;;5016733;28;20426;-72
2022/01/28 03:16:27;;;;;;;11.57;8.00;;;2.50;99.90;;;;;;5018177;28;20614;-74
2022/01/28 03:18:57;;;;;;;10.07;7.32;;;2.50;99.90;;;;;;5031208;28;20025;-74
2022/01/28 03:23:49;;;;;;;9.68;6.50;;;2.50;99.90;;;;;;5021557;28;20030;-72
2022/01/28 03:26:15;;;;;;;9.00;5.43;;;2.50;99.90;;;;;;5028320;28;20097;-72
2022/01/28 03:28:40;;;;;;;8.63;6.18;;;2.50;99.90;;;;;;5025068;28;20028;-72
2022/01/28 03:31:06;;;;;;;7.75;5.50;;;2.50;99.90;;;;;;5019947;28;20026;-73
2022/01/28 03:33:32;;;;;;;8.68;5.35;;;2.50;99.90;;;;;;5024351;28;20450;-73
2022/01/28 03:35:58;;;;;;;9.50;5.90;;;2.50;99.90;;;;;;5023802;28;20077;-73
2022/01/28 03:38:23;;;;;;;8.70;6.00;;;2.40;99.90;;;;;;5024857;28;20119;-73
2022/01/28 03:40:51;;;;;;;9.90;5.10;;;2.50;99.90;;;;;;5019791;28;20128;-73
2022/01/28 03:43:16;;;;;;;9.90;5.38;;;2.50;99.90;;;;;;5034405;28;20026;-73
2022/01/28 03:45:42;;;;;;;9.30;5.10;;;2.50;99.90;;;;;;5017588;28;20029;-73
2022/01/28 03:48:07;;;;;;;7.63;4.80;;;2.50;99.90;;;;;;5023780;28;20415;-72
2022/01/28 03:50:34;;;;;;;8.05;4.53;;;2.50;99.90;;;;;;5030445;28;20037;-72
2022/01/28 03:53:04;;;;;;;7.70;4.30;;;2.60;99.90;;;;;;5024813;28;20025;-72
2022/01/28 03:55:30;;;;;;;9.27;4.00;;;2.60;99.90;;;;;;5030141;28;20100;-72
2022/01/28 03:57:55;;;;;;;7.15;3.90;;;2.70;99.90;;;;;;5025096;28;20059;-72
2022/01/28 04:00:25;;;;;;;6.05;3.22;;;2.70;99.90;;;;;;5016481;28;20101;-72
2022/01/28 04:02:58;;;;;;;7.78;3.85;;;2.70;99.90;;;;;;5024390;28;20494;-72
2022/01/28 04:13:29;;;;;;;9.70;3.72;;;2.80;99.90;;;;;;5014378;28;20052;-72
2022/01/28 04:16:27;;;;;;;9.52;3.78;;;2.70;99.90;;;;;;5026175;28;20483;-72
2022/01/28 04:18:49;;;;;;;5.53;3.35;;;2.70;99.90;;;;;;5033570;28;20561;-72
2022/01/28 04:21:15;;;;;;;7.97;3.45;;;2.80;99.90;;;;;;5030952;28;20065;-73
2022/01/28 04:23:41;;;;;;;7.20;3.42;;;2.70;99.90;;;;;;5023210;28;20079;-74
2022/01/28 04:26:07;;;;;;;8.60;3.70;;;2.70;99.90;;;;;;5017691;28;21370;-74
2022/01/28 04:28:32;;;;;;;5.63;3.10;;;2.70;99.90;;;;;;5023040;28;20021;-74
2022/01/28 04:30:58;;;;;;;6.25;3.08;;;2.70;99.90;;;;;;5029990;28;20104;-73
2022/01/28 04:33:23;;;;;;;7.65;3.53;;;2.70;99.90;;;;;;5022343;28;20021;-73
2022/01/28 04:35:52;;;;;;;8.77;3.80;;;2.70;99.90;;;;;;5019036;28;20118;-74
2022/01/28 04:41:07;;;;;;;8.85;3.50;;;2.80;99.90;;;;;;5026825;28;20026;-73
2022/01/28 04:43:40;;;;;;;9.88;4.20;;;2.80;99.90;;;;;;5025651;28;20033;-73
2022/01/28 04:46:16;;;;;;;8.18;3.70;;;2.70;99.90;;;;;;5013774;28;20391;-73
2022/01/28 04:48:53;;;;;;;8.13;4.07;;;2.70;99.90;;;;;;5027886;28;20530;-73
2022/01/28 04:57:19;;;;;;;11.93;4.35;;;2.50;99.90;;;;;;5019888;28;20029;-74
2022/01/28 05:02:27;;;;;;;7.90;4.20;;;2.50;99.90;;;;;;5026286;28;20387;-74
2022/01/28 05:05:09;;;;;;;8.23;4.15;;;2.60;99.90;;;;;;5026367;28;20025;-74
2022/01/28 05:10:46;;;;;;;6.95;3.80;;;2.50;99.90;;;;;;5019975;28;20025;-75
2022/01/28 05:16:14;;;;;;;7.40;4.10;;;2.50;99.90;;;;;;5033050;28;20030;-74
2022/01/28 05:26:38;;;;;;;8.75;4.18;;;2.60;99.90;;;;;;5026630;28;20412;-73
2022/01/28 05:29:04;;;;;;;11.45;4.40;;;2.50;99.90;;;;;;5012805;28;20022;-73
2022/01/28 05:31:29;;;;;;;8.57;4.10;;;2.50;99.90;;;;;;5025583;28;20121;-73
2022/01/28 05:33:55;;;;;;;10.18;4.18;;;2.60;99.90;;;;;;5024535;28;20487;-73
2022/01/28 05:36:22;;;;;;;7.05;3.90;;;2.50;99.90;;;;;;5019255;28;20109;-74
2022/01/28 05:38:48;;;;;;;6.80;3.90;;;2.40;99.90;;;;;;5017375;28;20034;-74
2022/01/28 05:41:13;;;;;;;5.97;3.40;;;2.60;99.90;;;;;;5024246;28;20025;-74
2022/01/28 05:43:39;;;;;;;12.57;4.15;;;2.50;99.90;;;;;;5024244;28;20415;-74
2022/01/28 05:46:05;;;;;;;10.32;3.80;;;2.50;99.90;;;;;;5019008;28;20017;-75
2022/01/28 05:48:30;;;;;;;7.13;3.60;;;2.50;99.90;;;;;;5017389;28;20014;-75
2022/01/28 05:50:56;;;;;;;9.43;4.00;;;2.60;99.90;;;;;;5019006;28;20060;-75
2022/01/28 05:53:22;;;;;;;8.05;3.92;;;2.50;99.90;;;;;;5018926;28;20029;-75
2022/01/28 05:55:47;;;;;;;8.85;4.10;;;2.50;99.90;;;;;;5025386;28;20514;-75
2022/01/28 05:58:13;;;;;;;7.20;4.28;;;2.50;99.90;;;;;;5025454;28;20403;-74
2022/01/28 06:00:38;;;;;;;9.75;4.90;;;2.40;99.90;;;;;;5018791;28;20467;-74
2022/01/28 06:03:04;;;;;;;11.48;5.55;;;2.40;99.90;;;;;;5031734;28;20022;-74
2022/01/28 06:05:30;;;;;;;10.88;4.93;;;2.40;99.90;;;;;;5017656;28;20018;-74
2022/01/28 06:07:57;;;;;;;11.02;4.88;;;2.50;99.90;;;;;;5017292;28;20014;-74
2022/01/28 06:10:23;;;;;;;8.00;4.50;;;2.40;99.90;;;;;;5024632;28;20429;-74
2022/01/28 06:12:48;;;;;;;13.45;5.80;;;2.40;99.90;;;;;;5025413;28;20117;-75
2022/01/28 06:15:14;;;;;;;8.80;4.97;;;2.40;99.90;;;;;;5018820;28;20472;-74
2022/01/28 06:17:41;;;;;;;7.93;4.75;;;2.40;99.90;;;;;;5018602;28;20056;-75
2022/01/28 06:20:09;;;;;;;8.25;4.50;;;2.40;99.90;;;;;;5024551;28;20101;-76
2022/01/28 06:22:38;;;;;;;8.20;5.05;;;2.40;99.90;;;;;;5025022;28;20483;-75
2022/01/28 06:25:05;;;;;;;11.07;5.35;;;2.30;99.90;;;;;;5018554;28;20065;-75
2022/01/28 06:27:30;;;;;;;8.43;5.63;;;2.30;99.90;;;;;;5030350;28;20442;-75
2022/01/28 06:29:56;;;;;;;8.75;5.05;;;2.30;99.90;;;;;;5017714;28;20057;-76
2022/01/28 06:32:21;;;;;;;9.77;4.93;;;2.30;99.90;;;;;;5018079;28;20038;-76
2022/01/28 06:34:47;;;;;;;8.32;4.72;;;2.30;99.90;;;;;;5027340;28;20101;-75
2022/01/28 06:37:13;;;;;;;12.90;5.53;;;2.10;99.90;;;;;;5029897;28;20025;-75
2022/01/28 06:39:38;;;;;;;8.32;4.55;;;2.30;99.90;;;;;;5018546;28;20030;-76
2022/01/28 06:42:04;;;;;;;11.82;4.88;;;2.30;99.90;;;;;;5018225;28;20076;-76
2022/01/28 06:44:31;;;;;;;9.50;4.97;;;2.20;99.90;;;;;;5023563;28;20540;-75
2022/01/28 06:46:57;;;;;;;8.60;5.15;;;2.20;99.90;;;;;;5023796;28;20064;-76
2022/01/28 06:49:22;;;;;;;11.55;5.07;;;2.20;99.90;;;;;;5018417;28;20430;-75
2022/01/28 06:51:48;;;;;;;10.32;4.85;;;2.20;99.90;;;;;;5016767;28;20026;-76
2022/01/28 06:54:13;;;;;;;7.70;5.80;;;2.10;99.90;;;;;;5016714;28;20021;-76
2022/01/28 06:56:39;;;;;;;8.00;4.53;;;1.90;99.90;;;;;;5017161;28;20053;-75
2022/01/28 06:59:04;;;;;;;8.20;5.15;;;1.90;99.90;;;;;;5025379;28;20026;-75
2022/01/28 07:01:30;;;;;;;10.25;4.95;;;2.00;99.90;;;;;;5026996;28;20120;-74
2022/01/28 07:03:55;;;;;;;11.32;4.82;;;2.00;99.90;;;;;;5021689;28;20494;-75
2022/01/28 07:06:23;;;;;;;11.18;4.43;;;2.00;99.90;;;;;;5022467;28;20029;-75
2022/01/28 07:08:49;;;;;;;11.65;5.53;;;1.90;99.90;;;;;;5027103;28;20022;-75
2022/01/28 07:11:15;;;;;;;8.80;3.95;;;2.00;99.90;;;;;;5027028;28;20021;-75
2022/01/28 07:13:40;;;;;;;12.65;4.28;;;2.00;99.90;;;;;;5015336;28;20114;-73
2022/01/28 07:16:06;;;;;;;9.10;3.67;;;2.10;99.90;;;;;;5014008;28;20503;-73
2022/01/28 07:18:31;;;;;;;9.15;3.50;;;2.10;99.90;;;;;;5015039;28;20030;-73
2022/01/28 07:20:57;;;;;;;8.38;3.38;;;2.10;99.90;;;;;;5013635;28;20037;-73
2022/01/28 07:23:22;;;;;;;8.40;3.88;;;2.20;99.90;;;;;;5015039;28;20026;-73
2022/01/28 07:25:48;;;;;;;11.73;4.03;;;2.10;99.90;;;;;;5015085;28;20030;-73
2022/01/28 07:28:13;;;;;;;6.47;3.55;;;2.10;99.90;;;;;;5034574;28;20025;-73
2022/01/28 07:30:39;;;;;;;9.95;3.55;;;2.10;99.90;;;;;;5034400;28;20108;-73
2022/01/28 07:33:07;;;;;;;6.15;3.42;;;2.10;99.90;;;;;;5019915;28;20029;-73
2022/01/28 07:35:34;;;;;;;8.75;3.40;;;2.20;99.90;;;;;;5029392;28;20030;-73
2022/01/28 07:37:59;;;;;;;7.90;3.20;;;2.30;99.90;;;;;;5012914;28;20022;-73
2022/01/28 07:40:25;;;;;;;6.78;3.50;;;2.30;99.90;;;;;;5020985;28;20426;-73
2022/01/28 07:42:50;;;;;;;10.13;3.30;;;2.30;99.90;;;;;;5034222;28;20037;-73
2022/01/28 07:45:16;;;;;;;7.13;3.35;;;2.30;99.90;;;;;;5033045;28;20095;-73
2022/01/28 07:47:43;;;;;;;8.75;3.60;;;2.20;99.90;;;;;;5028045;28;20030;-73
2022/01/28 07:50:09;;;;;;;7.30;3.55;;;2.30;99.90;;;;;;5027500;28;20046;-74
2022/01/28 07:52:36;;;;;;;7.88;4.07;;;2.30;99.90;;;;;;5019540;28;20113;-74
2022/01/28 07:55:03;;;;;;;11.20;3.85;;;2.30;99.90;;;;;;5021125;28;20084;-73
2022/01/28 07:57:30;;;;;;;7.65;4.00;;;2.30;99.90;;;;;;5020951;28;20029;-73
2022/01/28 07:59:56;;;;;;;9.65;3.35;;;2.40;99.90;;;;;;5033995;28;20029;-73
2022/01/28 08:02:21;;;;;;;9.55;3.45;;;2.40;99.90;;;;;;5014133;28;20073;-73
2022/01/28 08:04:47;;;;;;;6.45;2.92;;;2.40;99.90;;;;;;5026203;28;20017;-74
2022/01/28 08:07:13;;;;;;;8.18;3.10;;;2.40;99.90;;;;;;5020860;28;20523;-73
2022/01/28 08:09:38;;;;;;;7.32;3.15;;;2.50;99.90;;;;;;5020763;28;20030;-74
2022/01/28 08:12:04;;;;;;;12.10;4.05;;;2.50;99.90;;;;;;5032305;28;20488;-73
2022/01/28 08:14:33;;;;;;;6.60;2.50;;;2.50;99.90;;;;;;5020471;28;20125;-73
2022/01/28 08:16:59;;;;;;;7.63;2.83;;;2.50;99.90;;;;;;5012774;28;20033;-73
2022/01/28 08:19:25;;;;;;;5.30;2.75;;;2.50;99.90;;;;;;5027805;28;20029;-73
2022/01/28 08:21:50;;;;;;;8.25;2.85;;;2.50;99.90;;;;;;5033683;28;20041;-74
2022/01/28 08:24:16;;;;;;;6.47;2.58;;;2.50;99.90;;;;;;5020362;28;20068;-74
2022/01/28 08:26:42;;;;;;;7.70;2.97;;;2.50;99.90;;;;;;5026506;28;20176;-73
2022/01/28 08:29:07;;;;;;;12.80;3.40;;;2.60;99.90;;;;;;5029258;28;20029;-73
2022/01/28 08:31:34;;;;;;;7.32;2.95;;;2.60;99.90;;;;;;5030627;28;20057;-74
2022/01/28 08:34:00;;;;;;;5.18;2.58;;;2.60;99.90;;;;;;5029649;28;20017;-74
2022/01/28 08:36:26;;;;;;;9.07;3.10;;;2.60;99.90;;;;;;5021174;28;20022;-73
2022/01/28 08:38:54;;;;;;;7.43;2.90;;;2.70;99.90;;;;;;5012785;28;20036;-73
2022/01/28 08:41:20;;;;;;;5.88;2.63;;;2.70;99.90;;;;;;5013308;28;20033;-74
2022/01/28 08:43:46;;;;;;;7.43;2.85;;;2.60;99.90;;;;;;5012151;28;20056;-74
2022/01/28 08:46:12;;;;;;;9.55;2.72;;;2.70;99.90;;;;;;5020715;28;20065;-73
2022/01/28 08:48:37;;;;;;;6.28;2.78;;;2.70;99.90;;;;;;5018010;28;20025;-73
2022/01/28 08:51:03;;;;;;;7.90;2.67;;;2.70;99.90;;;;;;5013245;28;20058;-74
2022/01/28 08:53:29;;;;;;;8.43;3.13;;;2.80;99.90;;;;;;5028083;28;20100;-75
2022/01/28 08:55:54;;;;;;;8.38;2.75;;;2.80;99.90;;;;;;5025659;28;20025;-75
2022/01/28 08:58:20;;;;;;;8.10;2.85;;;2.80;99.90;;;;;;5026474;28;20033;-75
2022/01/28 09:00:48;;;;;;;6.50;2.50;;;2.90;99.90;;;;;;5020742;28;20026;-75
2022/01/28 09:03:15;;;;;;;7.30;2.88;;;2.90;99.90;;;;;;5019746;28;20022;-74
2022/01/28 09:05:41;;;;;;;9.07;2.50;;;2.90;99.90;;;;;;5030152;28;20022;-74
2022/01/28 09:08:08;;;;;;;9.30;2.90;;;2.90;99.90;;;;;;5033195;28;20024;-73
2022/01/28 09:10:37;;;;;;;5.25;2.25;;;2.90;99.90;;;;;;5040411;28;20501;-73
2022/01/28 09:15:37;;;;;;;8.52;2.47;;;3.00;99.90;;;;;;5028273;28;20100;-74
2022/01/28 09:18:04;;;;;;;5.45;2.13;;;3.10;99.90;;;;;;5024314;28;20395;-74
2022/01/28 09:20:31;;;;;;;8.23;3.60;;;3.00;99.90;;;;;;5026961;28;20494;-74
2022/01/28 09:22:59;;;;;;;7.32;2.17;;;3.00;99.90;;;;;;5023697;28;20380;-74
2022/01/28 09:25:25;;;;;;;8.57;2.60;;;3.00;99.90;;;;;;5024031;28;20065;-74
2022/01/28 09:27:51;;;;;;;11.18;2.70;;;3.00;99.90;;;;;;5022522;28;20013;-72
2022/01/28 09:30:16;;;;;;;12.20;3.28;;;3.10;99.90;;;;;;5027154;28;20510;-74
2022/01/28 09:32:42;;;;;;;10.27;3.08;;;3.00;99.90;;;;;;5024332;28;20026;-74
2022/01/28 09:35:08;;;;;;;6.78;2.95;;;3.00;99.90;;;;;;5025513;28;20080;-74
2022/01/28 09:37:34;;;;;;;9.75;2.72;;;3.00;99.90;;;;;;5026064;28;20348;-77
2022/01/28 09:40:00;;;;;;;9.82;2.95;;;3.10;99.90;;;;;;5032594;28;20029;-76
2022/01/28 09:42:29;;;;;;;12.18;3.47;;;3.10;99.90;;;;;;5040915;28;20022;-74
2022/01/28 09:44:55;;;;;;;7.15;2.67;;;3.10;99.90;;;;;;5029713;28;20010;-74
2022/01/28 09:47:21;;;;;;;12.75;3.58;;;3.10;99.90;;;;;;5025862;28;20021;-74
2022/01/28 09:49:48;;;;;;;10.13;3.10;;;3.10;99.90;;;;;;5031938;28;20442;-74
2022/01/28 09:52:13;;;;;;;9.65;3.25;;;3.10;99.90;;;;;;5026736;28;20022;-72
2022/01/28 09:54:43;;;;;;;10.68;2.92;;;3.20;99.90;;;;;;5019531;28;20491;-74
2022/01/28 09:57:09;;;;;;;9.65;2.70;;;3.30;99.90;;;;;;5025239;28;20064;-74
2022/01/28 09:59:37;;;;;;;8.68;3.05;;;3.20;99.90;;;;;;5021143;28;20052;-74
2022/01/28 10:02:03;;;;;;;6.75;3.00;;;3.30;99.90;;;;;;5028538;28;20094;-75
2022/01/28 10:04:28;;;;;;;8.98;2.92;;;3.30;99.90;;;;;;5036684;28;20480;-75
2022/01/28 10:06:55;;;;;;;9.95;2.80;;;3.50;99.90;;;;;;5040056;28;20371;-75
2022/01/28 10:09:23;;;;;;;9.00;2.75;;;3.30;99.90;;;;;;5042497;28;20021;-76
2022/01/28 10:11:52;;;;;;;11.38;3.58;;;3.40;99.90;;;;;;5041005;28;20063;-75
2022/01/28 10:14:22;;;;;;;7.85;3.17;;;3.50;99.90;;;;;;5028446;28;20494;-75
2022/01/28 10:17:02;;;;;;;9.30;2.83;;;3.50;99.90;;;;;;5024826;28;20036;-75
2022/01/28 10:19:38;;;;;;;10.73;3.40;;;3.50;99.90;;;;;;5034352;28;20045;-75
2022/01/28 10:22:15;;;;;;;10.48;3.80;;;3.50;99.90;;;;;;5039844;28;20112;-75
2022/01/28 10:24:41;;;;;;;10.65;2.92;;;3.50;99.90;;;;;;5031147;28;20072;-74
2022/01/28 10:27:08;;;;;;;12.93;3.50;;;3.40;99.90;;;;;;5035111;28;20029;-75
2022/01/28 10:29:39;;;;;;;8.80;3.30;;;3.50;99.90;;;;;;5027067;28;20108;-75
2022/01/28 10:32:15;;;;;;;10.43;3.22;;;3.50;99.90;;;;;;5032549;28;20403;-75
2022/01/28 10:34:49;;;;;;;13.77;3.38;;;3.40;99.90;;;;;;5029045;28;20028;-75
2022/01/28 10:37:16;;;;;;;9.85;3.10;;;3.40;99.90;;;;;;5039559;28;20028;-73
2022/01/28 10:39:51;;;;;;;8.18;3.05;;;3.40;99.90;;;;;;5027189;28;20026;-73
2022/01/28 10:42:24;;;;;;;10.32;3.47;;;3.30;99.90;;;;;;5024867;28;20057;-74
2022/01/28 10:44:55;;;;;;;9.20;3.25;;;3.40;99.90;;;;;;5027585;28;20071;-74
2022/01/28 10:47:38;;;;;;;9.93;2.80;;;3.30;99.90;;;;;;5026234;28;20026;-74
2022/01/28 10:50:28;;;;;;;9.27;3.50;;;3.30;99.90;;;;;;5027888;28;20022;-74
2022/01/28 10:53:03;;;;;;;8.52;4.00;;;3.40;99.90;;;;;;5025345;28;20488;-73
2022/01/28 10:55:31;;;;;;;10.82;2.80;;;3.40;99.90;;;;;;5024843;28;20032;-73
2022/01/28 10:58:07;;;;;;;10.30;3.17;;;3.40;99.90;;;;;;5028169;28;20029;-74
2022/01/28 11:00:36;;;;;;;13.55;3.47;;;3.40;99.90;;;;;;5044267;28;20029;-74
2022/01/28 11:03:06;;;;;;;12.38;3.40;;;3.60;99.90;;;;;;5033863;28;20060;-73
2022/01/28 11:05:34;;;;;;;11.90;3.90;;;3.50;99.90;;;;;;5028489;28;20018;-73
2022/01/28 11:08:01;;;;;;;8.63;3.00;;;3.50;99.90;;;;;;5031354;28;20153;-73
2022/01/28 11:10:28;;;;;;;9.55;3.53;;;3.50;99.90;;;;;;5029560;28;20130;-74
2022/01/28 11:12:54;;;;;;;8.63;3.22;;;3.60;99.90;;;;;;5044515;28;20033;-74
2022/01/28 11:15:22;;;;;;;8.80;3.13;;;3.60;99.90;;;;;;5034431;28;20042;-73
2022/01/28 11:17:49;;;;;;;12.57;3.30;;;3.60;99.90;;;;;;5032990;28;20021;-74
2022/01/28 11:20:20;;;;;;;7.38;3.08;;;3.60;99.90;;;;;;5039680;28;20440;-75
2022/01/28 11:23:20;;;;;;;7.60;2.80;;;3.60;99.90;;;;;;5036381;28;20029;-75
2022/01/28 11:26:10;;;;;;;10.20;3.20;;;3.60;99.90;;;;;;5045448;28;20017;-75
2022/01/28 11:28:43;;;;;;;9.27;3.08;;;3.60;99.90;;;;;;5028849;28;20050;-75
2022/01/28 11:31:10;;;;;;;11.18;3.00;;;3.70;99.90;;;;;;5035792;28;20057;-75
2022/01/28 11:33:50;;;;;;;15.23;3.70;;;3.80;99.90;;;;;;5046884;28;20155;-75
2022/01/28 11:36:33;;;;;;;11.35;3.17;;;3.80;99.90;;;;;;5043292;28;20090;-75
2022/01/28 11:39:08;;;;;;;7.90;3.00;;;3.80;99.90;;;;;;5039165;28;20082;-75
2022/01/28 11:41:35;;;;;;;15.70;4.80;;;3.80;99.90;;;;;;5044419;28;20050;-75
2022/01/28 11:44:01;;;;;;;10.18;3.15;;;3.80;99.90;;;;;;5037385;28;20037;-75
2022/01/28 11:46:31;;;;;;;12.73;4.28;;;3.70;99.90;;;;;;5045731;28;20039;-75
2022/01/28 11:48:56;;;;;;;9.70;3.10;;;3.70;99.90;;;;;;5039422;28;20038;-75
2022/01/28 11:51:32;;;;;;;12.25;3.90;;;3.80;99.90;;;;;;5045823;28;20549;-76
2022/01/28 11:54:00;;;;;;;9.52;3.92;;;3.70;99.90;;;;;;5035415;28;20045;-75
2022/01/28 11:56:26;;;;;;;13.07;3.97;;;3.70;99.90;;;;;;5040070;28;20104;-75
2022/01/28 11:58:56;;;;;;;11.02;3.90;;;3.70;99.90;;;;;;5043699;28;20152;-75
2022/01/28 12:01:43;;;;;;;9.75;3.55;;;3.60;99.90;;;;;;5049203;28;20026;-75
2022/01/28 12:04:29;;;;;;;11.63;3.28;;;3.60;99.90;;;;;;5031603;28;20036;-75
2022/01/28 12:07:01;;;;;;;10.15;3.30;;;3.60;99.90;;;;;;5041480;28;20484;-75
2022/01/28 12:09:28;;;;;;;9.00;3.85;;;3.70;99.90;;;;;;5037779;28;20028;-75
2022/01/28 12:11:54;;;;;;;14.65;4.40;;;3.70;99.90;;;;;;5023722;28;20380;-76
2022/01/28 12:14:53;;;;;;;12.40;3.30;;;3.60;99.90;;;;;;5033753;28;20034;-76
2022/01/28 12:17:39;;;;;;;12.50;3.35;;;3.60;99.90;;;;;;5023898;28;20022;-74
2022/01/28 12:20:11;;;;;;;7.70;3.22;;;3.60;99.90;;;;;;5026338;28;20568;-74
2022/01/28 12:22:59;;;;;;;8.93;3.22;;;3.70;99.90;;;;;;5023600;28;20033;-74
2022/01/28 12:25:43;;;;;;;10.65;3.53;;;3.70;99.90;;;;;;5027086;28;20013;-74
2022/01/28 12:28:31;;;;;;;10.75;3.10;;;3.70;99.90;;;;;;5024182;28;20032;-74
2022/01/28 12:31:03;;;;;;;12.15;3.67;;;3.70;99.90;;;;;;5025891;28;20017;-76
2022/01/28 12:33:33;;;;;;;9.82;3.47;;;3.80;99.90;;;;;;5025437;28;20052;-76
2022/01/28 12:36:07;;;;;;;13.88;3.90;;;3.80;99.90;;;;;;5040066;28;20026;-76
2022/01/28 12:38:34;;;;;;;8.98;3.33;;;3.90;99.90;;;;;;5042697;28;20458;-75
2022/01/28 12:41:08;;;;;;;9.95;3.35;;;4.00;99.90;;;;;;5037528;28;20484;-76
2022/01/28 12:43:37;;;;;;;10.93;3.80;;;4.10;99.90;;;;;;5033928;28;20026;-76
2022/01/28 12:46:09;;;;;;;11.10;3.92;;;4.20;99.90;;;;;;5027683;28;20034;-74
2022/01/28 12:48:36;;;;;;;16.25;3.97;;;4.20;99.90;;;;;;5019820;28;20080;-74
2022/01/28 12:51:03;;;;;;;13.93;3.70;;;4.10;99.90;;;;;;5038373;28;20461;-74
2022/01/28 12:53:30;;;;;;;13.05;3.30;;;4.10;99.90;;;;;;5032131;28;20025;-74
2022/01/28 12:55:56;;;;;;;11.60;4.20;;;4.10;99.90;;;;;;5039287;28;20017;-73
2022/01/28 12:58:35;;;;;;;12.63;3.38;;;4.10;99.90;;;;;;5027977;28;20049;-74
2022/01/28 13:01:20;;;;;;;8.25;2.97;;;4.10;99.90;;;;;;5028902;28;20034;-73
2022/01/28 13:03:56;;;;;;;10.45;3.22;;;4.10;99.90;;;;;;5040285;28;20044;-73
2022/01/28 13:08:59;;;;;;;11.68;3.80;;;4.10;99.90;;;;;;5033557;28;20400;-74
2022/01/28 13:11:25;;;;;;;12.30;3.97;;;4.10;99.90;;;;;;5042183;28;20063;-75
2022/01/28 13:13:56;;;;;;;10.80;3.13;;;4.10;99.90;;;;;;5028688;28;20076;-75
2022/01/28 13:16:33;;;;;;;11.93;4.18;;;4.10;99.90;;;;;;5035606;28;20025;-73
2022/01/28 13:19:00;;;;;;;8.60;3.72;;;4.10;99.90;;;;;;5041476;28;20025;-74
2022/01/28 13:21:26;;;;;;;11.50;3.33;;;4.00;99.90;;;;;;5040736;28;20021;-73
2022/01/28 13:24:14;;;;;;;9.13;3.00;;;4.00;99.90;;;;;;5046299;28;20024;-74
2022/01/28 13:26:55;;;;;;;8.50;3.33;;;4.00;99.90;;;;;;5030557;28;20025;-74
2022/01/28 13:29:36;;;;;;;10.23;3.17;;;4.00;99.90;;;;;;5038519;28;20025;-76
2022/01/28 13:32:08;;;;;;;13.90;3.67;;;4.00;99.90;;;;;;5046229;28;20501;-77
2022/01/28 13:34:50;;;;;;;12.77;3.40;;;4.00;99.90;;;;;;5034390;28;20075;-76
2022/01/28 13:37:49;;;;;;;8.93;3.35;;;4.00;99.90;;;;;;5034932;28;20029;-76
2022/01/28 13:40:17;;;;;;;10.38;3.35;;;4.00;99.90;;;;;;5029546;28;20048;-77
2022/01/28 13:43:06;;;;;;;11.90;3.30;;;4.10;99.90;;;;;;5028126;28;20022;-74
2022/01/28 13:45:40;;;;;;;11.40;3.58;;;4.10;99.90;;;;;;5033895;28;20052;-76
2022/01/28 13:48:14;;;;;;;12.10;3.45;;;4.10;99.90;;;;;;5035091;28;20476;-75
2022/01/28 13:50:42;;;;;;;11.13;3.55;;;4.10;99.90;;;;;;5038069;28;20072;-75
2022/01/28 13:53:33;;;;;;;10.98;4.25;;;4.00;99.90;;;;;;5040615;28;20041;-74
2022/01/28 13:56:02;;;;;;;10.20;3.40;;;4.10;99.90;;;;;;5027441;28;20018;-75
2022/01/28 13:58:29;;;;;;;9.68;3.65;;;4.00;99.90;;;;;;5025238;28;20021;-74
2022/01/28 14:00:55;;;;;;;9.07;3.47;;;4.10;99.90;;;;;;5034012;28;20018;-74
2022/01/28 14:03:24;;;;;;;12.68;3.75;;;4.20;99.90;;;;;;5038918;28;20032;-74
2022/01/28 14:05:51;;;;;;;11.30;3.35;;;4.20;99.90;;;;;;5043860;28;20402;-74
2022/01/28 14:08:40;;;;;;;13.65;3.92;;;4.30;99.90;;;;;;5031511;28;20018;-75
2022/01/28 14:11:29;;;;;;;9.05;3.30;;;4.30;99.90;;;;;;5042377;28;20021;-75
2022/01/28 14:14:23;;;;;;;10.65;4.18;;;4.30;99.90;;;;;;5036673;28;20083;-75
2022/01/28 14:16:58;;;;;;;9.40;3.35;;;4.30;99.90;;;;;;5018860;28;20083;-75
2022/01/28 14:19:28;;;;;;;9.05;3.20;;;4.30;99.90;;;;;;5018231;28;20032;-76
2022/01/28 14:21:54;;;;;;;9.93;3.67;;;4.40;99.90;;;;;;5023363;28;20022;-75
2022/01/28 14:24:23;;;;;;;11.77;3.65;;;4.40;99.90;;;;;;5025166;28;20036;-75